createdAt,value
2022-12-31T00:01:51.567Z,8.52
2022-12-31T00:04:18.858Z,5.10
2022-12-31T00:06:46.909Z,4.55
2022-12-31T00:09:14.242Z,2.08
2022-12-31T00:11:40.994Z,3.35
2022-12-31T00:14:07.904Z,5.80
2022-12-31T00:16:39.395Z,8.25
2022-12-31T00:19:08.175Z,4.72
2022-12-31T00:21:35.806Z,7.05
2022-12-31T00:24:04.406Z,2.70
2022-12-31T00:26:32.979Z,3.95
2022-12-31T00:29:03.040Z,4.47
2022-12-31T00:31:32.889Z,5.10
2022-12-31T00:34:00.178Z,3.03
2022-12-31T00:36:33.520Z,3.88
2022-12-31T00:39:01.732Z,7.38
2022-12-31T00:41:29.320Z,3.88
2022-12-31T00:43:56.087Z,2.75
2022-12-31T00:46:23.555Z,6.20
2022-12-31T00:48:50.454Z,3.80
2022-12-31T00:51:19.746Z,2.80
2022-12-31T00:53:46.876Z,7.05
2022-12-31T00:56:17.695Z,4.85
2022-12-31T00:58:45.146Z,4.97
2022-12-31T01:01:26.204Z,5.95
2022-12-31T01:03:58.147Z,6.50
2022-12-31T01:06:25.243Z,7.25
2022-12-31T01:08:53.266Z,4.85
2022-12-31T01:11:22.273Z,9.30
2022-12-31T01:14:00.731Z,6.03
2022-12-31T01:16:33.608Z,20.75
2022-12-31T01:19:02.516Z,12.90
2022-12-31T01:21:31.239Z,6.65
2022-12-31T01:23:59.313Z,7.32
2022-12-31T01:26:26.413Z,3.60
2022-12-31T01:28:53.104Z,7.90
2022-12-31T01:31:21.637Z,3.28
2022-12-31T01:33:49.081Z,6.25
2022-12-31T01:36:26.201Z,9.68
2022-12-31T01:38:55.108Z,5.57
2022-12-31T01:41:24.925Z,6.05
2022-12-31T01:44:21.861Z,4.03
2022-12-31T01:46:54.850Z,6.00
2022-12-31T01:49:24.618Z,10.93
2022-12-31T01:52:00.452Z,8.50
2022-12-31T01:54:29.837Z,7.20
2022-12-31T01:56:57.322Z,5.18
2022-12-31T01:59:27.614Z,11.07
2022-12-31T02:01:55.076Z,6.30
2022-12-31T02:04:24.785Z,13.65
2022-12-31T02:07:03.484Z,4.22
2022-12-31T02:09:31.767Z,8.82
2022-12-31T02:11:58.463Z,3.78
2022-12-31T02:14:56.132Z,11.00
2022-12-31T02:17:43.701Z,6.63
2022-12-31T02:20:35.135Z,7.97
2022-12-31T02:23:20.056Z,1.65
2022-12-31T02:26:11.526Z,6.22
2022-12-31T02:29:16.915Z,5.38
2022-12-31T02:31:50.508Z,4.32
2022-12-31T02:34:27.547Z,3.92
2022-12-31T02:36:57.871Z,4.90
2022-12-31T02:39:24.715Z,6.40
2022-12-31T02:41:52.051Z,6.78
2022-12-31T02:44:26.830Z,5.43
2022-12-31T02:47:05.485Z,4.38
2022-12-31T02:50:22.322Z,4.88
2022-12-31T02:53:08.628Z,2.63
2022-12-31T02:55:51.834Z,7.78
2022-12-31T02:59:15.621Z,2.22
2022-12-31T03:02:21.612Z,5.47
2022-12-31T03:04:56.866Z,5.90
2022-12-31T03:07:27.593Z,3.50
2022-12-31T03:09:55.066Z,1.75
2022-12-31T03:12:43.995Z,4.82
2022-12-31T03:15:30.830Z,5.50
2022-12-31T03:18:08.389Z,2.33
2022-12-31T03:20:57.684Z,3.85
2022-12-31T03:24:06.558Z,1.65
2022-12-31T03:26:33.220Z,4.03
2022-12-31T03:28:59.869Z,4.68
2022-12-31T03:31:26.581Z,2.53
2022-12-31T03:33:53.523Z,0.85
2022-12-31T03:36:20.181Z,0.60
2022-12-31T03:38:51.191Z,0.85
2022-12-31T03:43:46.318Z,0.35
2022-12-31T03:46:13.074Z,1.80
2022-12-31T03:48:39.997Z,1.02
2022-12-31T03:51:06.751Z,0.40
2022-12-31T03:53:34.816Z,0.00
2022-12-31T03:56:01.485Z,0.70
2022-12-31T03:58:28.163Z,0.55
2022-12-31T04:00:54.938Z,1.45
2022-12-31T04:03:21.762Z,0.00
2022-12-31T04:05:55.626Z,0.28
2022-12-31T04:08:22.501Z,0.00
2022-12-31T04:10:49.171Z,0.15
2022-12-31T04:13:15.902Z,0.10
2022-12-31T04:15:42.588Z,0.98
2022-12-31T04:18:09.913Z,0.00
2022-12-31T04:20:36.577Z,0.13
2022-12-31T04:23:03.333Z,0.03
2022-12-31T04:25:30.105Z,0.00
2022-12-31T04:27:56.801Z,0.55
2022-12-31T04:30:23.467Z,0.15
2022-12-31T04:32:50.288Z,0.03
2022-12-31T04:35:17.074Z,0.20
2022-12-31T04:37:43.755Z,0.10
2022-12-31T04:40:10.850Z,1.08
2022-12-31T04:42:38.133Z,0.55
2022-12-31T04:45:05.312Z,0.22
2022-12-31T04:47:31.961Z,2.17
2022-12-31T04:49:58.627Z,0.68
2022-12-31T04:52:25.330Z,0.20
2022-12-31T04:54:52.060Z,2.05
2022-12-31T04:57:18.786Z,1.33
2022-12-31T04:59:45.506Z,2.60
2022-12-31T05:02:12.415Z,2.45
2022-12-31T05:04:39.225Z,2.50
2022-12-31T05:07:05.938Z,3.03
2022-12-31T05:09:32.623Z,2.40
2022-12-31T05:11:59.367Z,6.43
2022-12-31T05:14:26.100Z,2.22
2022-12-31T05:16:52.854Z,5.32
2022-12-31T05:19:19.753Z,7.82
2022-12-31T05:22:06.426Z,4.55
2022-12-31T05:24:33.104Z,2.42
2022-12-31T05:26:59.801Z,6.95
2022-12-31T05:29:26.800Z,4.25
2022-12-31T05:31:53.708Z,8.60
2022-12-31T05:34:20.537Z,9.05
2022-12-31T05:36:47.253Z,5.60
2022-12-31T05:39:14.035Z,5.30
2022-12-31T05:41:40.687Z,4.90
2022-12-31T05:44:07.364Z,5.43
2022-12-31T05:46:34.023Z,11.45
2022-12-31T05:49:00.686Z,6.43
2022-12-31T05:51:27.390Z,4.72
2022-12-31T05:53:54.047Z,6.40
2022-12-31T05:56:20.733Z,3.95
2022-12-31T05:58:47.555Z,5.78
2022-12-31T06:01:14.302Z,8.93
2022-12-31T06:03:41.897Z,12.13
2022-12-31T06:06:08.622Z,4.40
2022-12-31T06:08:35.287Z,5.13
2022-12-31T06:11:01.975Z,6.55
2022-12-31T06:13:28.807Z,5.53
2022-12-31T06:15:55.488Z,5.85
2022-12-31T06:18:22.217Z,12.32
2022-12-31T06:20:48.887Z,6.13
2022-12-31T06:23:15.628Z,8.15
2022-12-31T06:25:42.287Z,10.88
2022-12-31T06:28:12.161Z,7.88
2022-12-31T06:30:44.907Z,9.45
2022-12-31T06:33:11.664Z,7.55
2022-12-31T06:35:38.376Z,5.05
2022-12-31T06:38:05.342Z,12.48
2022-12-31T06:40:32.021Z,7.03
2022-12-31T06:43:00.353Z,12.48
2022-12-31T06:45:28.201Z,7.72
2022-12-31T06:47:54.890Z,5.32
2022-12-31T06:50:21.571Z,11.15
2022-12-31T06:52:48.240Z,8.40
2022-12-31T06:55:15.470Z,8.23
2022-12-31T06:57:42.461Z,15.15
2022-12-31T07:00:11.072Z,4.28
2022-12-31T07:02:49.487Z,21.10
2022-12-31T07:05:28.126Z,6.30
2022-12-31T07:08:03.035Z,4.60
2022-12-31T07:10:44.761Z,7.90
2022-12-31T07:13:23.820Z,6.53
2022-12-31T07:16:22.089Z,15.85
2022-12-31T07:19:15.652Z,5.15
2022-12-31T07:21:43.133Z,7.95
2022-12-31T07:24:11.412Z,4.75
2022-12-31T07:27:25.556Z,3.40
2022-12-31T07:30:04.846Z,3.80
2022-12-31T07:32:43.745Z,12.15
2022-12-31T07:35:35.690Z,5.55
2022-12-31T07:38:17.603Z,3.25
2022-12-31T07:40:57.524Z,3.63
2022-12-31T07:43:35.467Z,4.63
2022-12-31T07:46:07.495Z,6.70
2022-12-31T07:48:34.480Z,6.00
2022-12-31T07:51:01.493Z,6.85
2022-12-31T07:53:28.594Z,6.15
2022-12-31T07:56:07.046Z,10.27
2022-12-31T07:58:39.643Z,9.35
2022-12-31T08:03:58.950Z,11.18
2022-12-31T08:06:28.695Z,10.85
2022-12-31T08:09:12.084Z,10.05
2022-12-31T08:11:55.330Z,9.90
2022-12-31T08:14:22.543Z,7.43
2022-12-31T08:16:49.810Z,9.77
2022-12-31T08:19:24.833Z,10.82
2022-12-31T08:22:04.502Z,5.90
2022-12-31T08:24:38.052Z,15.85
2022-12-31T08:27:17.069Z,8.25
2022-12-31T08:30:09.399Z,7.05
2022-12-31T08:32:58.554Z,6.80
2022-12-31T08:35:36.858Z,12.10
2022-12-31T08:38:58.932Z,13.50
2022-12-31T08:41:30.540Z,9.25
2022-12-31T08:44:03.296Z,16.80
2022-12-31T08:46:47.067Z,8.85
2022-12-31T08:49:14.855Z,6.30
2022-12-31T08:51:42.124Z,8.68
2022-12-31T08:54:12.619Z,9.63
2022-12-31T08:56:46.036Z,7.68
2022-12-31T08:59:44.766Z,12.40
2022-12-31T09:02:42.068Z,12.45
2022-12-31T09:06:03.159Z,15.35
2022-12-31T09:08:38.462Z,18.08
2022-12-31T09:11:19.192Z,8.30
2022-12-31T09:14:04.461Z,11.88
2022-12-31T09:17:10.252Z,17.40
2022-12-31T09:19:36.934Z,11.98
2022-12-31T09:22:04.151Z,15.10
2022-12-31T09:24:31.297Z,16.98
2022-12-31T09:27:10.448Z,11.93
2022-12-31T09:29:40.089Z,9.57
2022-12-31T09:32:42.358Z,20.60
2022-12-31T09:35:12.078Z,11.87
2022-12-31T09:37:46.382Z,16.42
2022-12-31T09:40:27.341Z,9.68
2022-12-31T09:43:24.506Z,13.48
2022-12-31T09:46:00.225Z,15.60
2022-12-31T09:49:07.489Z,12.30
2022-12-31T09:51:43.369Z,13.88
2022-12-31T09:54:16.852Z,6.85
2022-12-31T09:56:47.931Z,16.23
2022-12-31T09:59:46.236Z,13.57
2022-12-31T10:02:35.623Z,8.95
2022-12-31T10:05:17.053Z,14.38
2022-12-31T10:08:20.820Z,9.95
2022-12-31T10:10:55.615Z,4.93
2022-12-31T10:13:29.544Z,6.28
2022-12-31T10:16:53.301Z,9.75
2022-12-31T10:19:52.438Z,5.05
2022-12-31T10:22:40.528Z,8.80
2022-12-31T10:25:49.021Z,10.68
2022-12-31T10:28:29.996Z,6.20
2022-12-31T10:31:41.028Z,4.78
2022-12-31T10:34:17.011Z,3.22
2022-12-31T10:37:09.145Z,3.50
2022-12-31T10:40:00.230Z,1.60
2022-12-31T10:42:26.891Z,3.00
2022-12-31T10:45:18.307Z,3.63
2022-12-31T10:48:22.073Z,5.65
2022-12-31T10:51:20.804Z,1.98
2022-12-31T10:54:24.736Z,2.08
2022-12-31T10:57:07.209Z,1.25
2022-12-31T10:59:58.563Z,3.10
2022-12-31T11:02:40.142Z,1.45
2022-12-31T11:05:44.277Z,1.75
2022-12-31T11:08:32.096Z,4.60
2022-12-31T11:11:26.754Z,4.07
2022-12-31T11:14:05.687Z,3.15
2022-12-31T11:17:10.036Z,3.38
2022-12-31T11:20:00.208Z,0.88
2022-12-31T11:22:38.411Z,2.80
2022-12-31T11:25:38.649Z,1.63
2022-12-31T11:28:20.535Z,0.68
2022-12-31T11:31:06.736Z,2.03
2022-12-31T11:33:51.425Z,0.73
2022-12-31T11:36:45.717Z,1.08
2022-12-31T11:40:01.034Z,1.20
2022-12-31T11:42:39.800Z,1.42
2022-12-31T11:45:26.672Z,0.38
2022-12-31T11:48:29.591Z,0.40
2022-12-31T11:51:11.854Z,0.22
2022-12-31T11:53:57.586Z,0.60
2022-12-31T11:56:31.379Z,0.63
2022-12-31T11:58:58.390Z,0.52
2022-12-31T12:01:27.509Z,1.60
2022-12-31T12:03:54.275Z,0.28
2022-12-31T12:06:28.253Z,0.30
2022-12-31T12:08:59.691Z,2.83
2022-12-31T12:11:30.339Z,2.97
2022-12-31T12:13:58.259Z,1.13
2022-12-31T12:16:26.850Z,3.08
2022-12-31T12:19:16.476Z,3.55
2022-12-31T12:21:48.127Z,4.78
2022-12-31T12:24:35.065Z,10.50
2022-12-31T12:27:01.809Z,6.22
2022-12-31T12:29:31.902Z,5.80
2022-12-31T12:32:17.529Z,4.65
2022-12-31T12:34:49.439Z,6.75
2022-12-31T12:37:22.671Z,7.18
2022-12-31T12:39:57.524Z,8.05
2022-12-31T12:42:24.358Z,7.45
2022-12-31T12:45:06.481Z,8.70
2022-12-31T12:47:34.116Z,7.57
2022-12-31T12:50:01.282Z,5.88
2022-12-31T12:52:27.911Z,5.85
2022-12-31T12:54:57.525Z,5.05
2022-12-31T12:57:48.734Z,14.43
2022-12-31T13:00:24.897Z,5.40
2022-12-31T13:03:25.657Z,6.65
2022-12-31T13:06:14.993Z,8.90
2022-12-31T13:09:19.604Z,9.30
2022-12-31T13:11:53.105Z,8.65
2022-12-31T13:14:26.893Z,6.15
2022-12-31T13:17:27.691Z,6.95
2022-12-31T13:20:11.213Z,8.88
2022-12-31T13:22:39.928Z,5.60
2022-12-31T13:25:28.421Z,11.30
2022-12-31T13:28:02.190Z,8.20
2022-12-31T13:30:35.016Z,5.30
2022-12-31T13:33:13.056Z,8.93
2022-12-31T13:35:53.945Z,12.43
2022-12-31T13:38:22.778Z,8.48
2022-12-31T13:41:02.790Z,8.25
2022-12-31T13:43:35.332Z,15.52
2022-12-31T13:49:01.445Z,7.97
2022-12-31T13:51:50.223Z,12.18
2022-12-31T13:54:26.100Z,11.50
2022-12-31T13:56:56.172Z,14.50
2022-12-31T13:59:48.481Z,11.73
2022-12-31T14:02:39.173Z,9.75
2022-12-31T14:05:11.647Z,8.90
2022-12-31T14:07:57.898Z,9.50
2022-12-31T14:10:57.497Z,16.85
2022-12-31T14:13:51.353Z,8.68
2022-12-31T14:16:31.710Z,11.88
2022-12-31T14:19:03.835Z,7.55
2022-12-31T14:21:43.094Z,11.18
2022-12-31T14:24:30.737Z,8.73
2022-12-31T14:27:01.389Z,6.03
2022-12-31T14:29:38.836Z,9.35
2022-12-31T14:32:35.317Z,9.80
2022-12-31T14:35:20.738Z,8.70
2022-12-31T14:38:24.744Z,12.85
2022-12-31T14:41:08.781Z,10.90
2022-12-31T14:43:57.514Z,13.73
2022-12-31T14:46:39.270Z,18.08
2022-12-31T14:49:27.160Z,16.73
2022-12-31T14:51:53.908Z,24.35
2022-12-31T14:54:34.073Z,12.88
2022-12-31T14:57:24.790Z,20.08
2022-12-31T14:59:56.853Z,16.20
2022-12-31T15:02:28.473Z,20.17
2022-12-31T15:05:32.588Z,15.18
2022-12-31T15:08:31.040Z,28.63
2022-12-31T15:11:00.470Z,31.95
2022-12-31T15:13:55.149Z,27.17
2022-12-31T15:16:39.832Z,22.45
2022-12-31T15:19:34.101Z,21.13
2022-12-31T15:22:09.869Z,25.33
2022-12-31T15:24:44.203Z,25.92
2022-12-31T15:27:30.987Z,21.88
2022-12-31T15:29:57.876Z,35.40
2022-12-31T15:32:36.745Z,26.08
2022-12-31T15:35:20.725Z,26.40
2022-12-31T15:38:22.322Z,22.33
2022-12-31T15:40:51.715Z,31.02
2022-12-31T15:43:24.347Z,24.58
2022-12-31T15:45:56.472Z,26.85
2022-12-31T15:48:31.290Z,23.48
2022-12-31T15:51:00.389Z,32.25
2022-12-31T15:53:42.147Z,18.42
2022-12-31T15:56:18.088Z,21.50
2022-12-31T15:58:47.190Z,36.03
2022-12-31T16:01:15.953Z,26.25
2022-12-31T16:03:46.540Z,17.40
2022-12-31T16:06:15.757Z,34.40
2022-12-31T16:08:47.813Z,24.15
2022-12-31T16:11:15.672Z,26.20
2022-12-31T16:13:47.754Z,15.90
2022-12-31T16:16:27.277Z,28.40
2022-12-31T16:18:54.515Z,22.27
2022-12-31T16:21:45.642Z,18.45
2022-12-31T16:25:02.856Z,29.92
2022-12-31T16:27:27.388Z,27.38
2022-12-31T16:30:07.176Z,24.08
2022-12-31T16:32:40.638Z,28.02
2022-12-31T16:35:28.919Z,24.55
2022-12-31T16:38:03.729Z,15.20
2022-12-31T16:40:30.966Z,20.17
2022-12-31T16:42:57.698Z,26.15
2022-12-31T16:45:33.089Z,23.85
2022-12-31T16:48:14.720Z,18.25
2022-12-31T16:50:52.354Z,18.58
2022-12-31T16:53:22.220Z,20.40
2022-12-31T16:56:05.548Z,20.10
2022-12-31T16:58:40.126Z,22.65
2022-12-31T17:01:15.755Z,16.40
2022-12-31T17:03:47.076Z,25.50
2022-12-31T17:06:18.823Z,34.03
2022-12-31T17:09:00.856Z,32.92
2022-12-31T17:11:35.685Z,23.35
2022-12-31T17:14:09.077Z,15.55
2022-12-31T17:17:03.226Z,22.42
2022-12-31T17:19:39.415Z,14.23
2022-12-31T17:22:13.008Z,26.73
2022-12-31T17:24:40.380Z,20.05
2022-12-31T17:27:08.592Z,18.20
2022-12-31T17:29:35.647Z,19.02
2022-12-31T17:32:07.800Z,18.90
2022-12-31T17:34:40.078Z,31.08
2022-12-31T17:37:18.101Z,22.10
2022-12-31T17:39:46.604Z,25.58
2022-12-31T17:42:22.362Z,12.88
2022-12-31T17:44:49.384Z,17.38
2022-12-31T17:47:16.130Z,17.13
2022-12-31T17:49:45.654Z,28.75
2022-12-31T17:52:15.086Z,17.13
2022-12-31T17:54:42.157Z,21.48
2022-12-31T17:57:23.824Z,18.90
2022-12-31T17:59:50.720Z,21.55
2022-12-31T18:02:17.586Z,31.63
2022-12-31T18:04:44.488Z,18.45
2022-12-31T18:07:11.288Z,21.50
2022-12-31T18:09:37.971Z,15.18
2022-12-31T18:12:06.298Z,40.90
2022-12-31T18:14:33.887Z,19.30
2022-12-31T18:17:00.913Z,19.15
2022-12-31T18:22:16.492Z,17.38
2022-12-31T18:24:44.448Z,21.02
2022-12-31T18:27:17.255Z,29.58
2022-12-31T18:29:44.272Z,24.52
2022-12-31T18:32:24.373Z,21.48
2022-12-31T18:34:52.279Z,26.17
2022-12-31T18:37:22.167Z,13.63
2022-12-31T18:39:49.248Z,15.57
2022-12-31T18:42:18.511Z,24.23
2022-12-31T18:44:45.762Z,13.45
2022-12-31T18:47:20.148Z,34.20
2022-12-31T18:49:48.508Z,21.60
2022-12-31T18:52:22.639Z,21.75
2022-12-31T18:54:49.539Z,31.52
2022-12-31T18:57:16.707Z,22.85
2022-12-31T18:59:43.556Z,24.00
2022-12-31T19:02:17.820Z,15.70
2022-12-31T19:04:44.650Z,15.07
2022-12-31T19:07:11.569Z,19.77
2022-12-31T19:09:46.689Z,36.50
2022-12-31T19:12:15.207Z,19.50
2022-12-31T19:14:45.403Z,23.17
2022-12-31T19:17:12.118Z,25.73
2022-12-31T19:19:38.810Z,21.40
2022-12-31T19:22:05.523Z,16.25
2022-12-31T19:24:32.184Z,26.75
2022-12-31T19:27:01.279Z,21.75
2022-12-31T19:29:28.761Z,22.63
2022-12-31T19:31:55.550Z,17.33
2022-12-31T19:34:22.320Z,18.42
2022-12-31T19:36:49.197Z,24.10
2022-12-31T19:39:18.297Z,23.67
2022-12-31T19:41:50.273Z,47.15
2022-12-31T19:44:23.098Z,18.50
2022-12-31T19:46:49.878Z,20.45
2022-12-31T19:49:16.615Z,22.75
2022-12-31T19:51:43.589Z,14.60
2022-12-31T19:54:13.436Z,23.00
2022-12-31T19:56:40.299Z,21.65
2022-12-31T19:59:08.575Z,25.20
2022-12-31T20:01:35.483Z,31.90
2022-12-31T20:04:02.650Z,16.15
2022-12-31T20:06:29.357Z,30.45
2022-12-31T20:08:56.098Z,16.90
2022-12-31T20:11:24.492Z,29.23
2022-12-31T20:13:55.001Z,15.38
2022-12-31T20:16:26.545Z,24.70
2022-12-31T20:18:53.485Z,17.93
2022-12-31T20:21:23.731Z,19.13
2022-12-31T20:23:52.732Z,16.88
2022-12-31T20:26:20.811Z,18.67
2022-12-31T20:28:47.765Z,14.35
2022-12-31T20:31:24.519Z,18.00
2022-12-31T20:33:51.329Z,16.90
2022-12-31T20:36:18.203Z,23.20
2022-12-31T20:38:45.366Z,14.43
2022-12-31T20:41:21.272Z,14.32
2022-12-31T20:43:48.722Z,19.50
2022-12-31T20:46:21.644Z,17.23
2022-12-31T20:48:50.278Z,19.38
2022-12-31T20:51:19.688Z,18.10
2022-12-31T20:53:51.584Z,15.60
2022-12-31T20:56:18.667Z,17.58
2022-12-31T20:58:45.445Z,12.10
2022-12-31T21:01:12.340Z,9.23
2022-12-31T21:06:28.984Z,16.70
2022-12-31T21:08:58.582Z,13.55
2022-12-31T21:11:43.762Z,11.00
2022-12-31T21:14:10.464Z,13.95
2022-12-31T21:16:37.178Z,11.68
2022-12-31T21:19:03.971Z,15.82
2022-12-31T21:21:30.705Z,10.38
2022-12-31T21:23:57.365Z,11.32
2022-12-31T21:26:24.150Z,12.70
2022-12-31T21:28:50.852Z,15.60
2022-12-31T21:31:17.627Z,14.35
2022-12-31T21:33:45.732Z,18.67
2022-12-31T21:36:12.763Z,5.82
2022-12-31T21:38:39.699Z,7.75
2022-12-31T21:41:08.435Z,9.55
2022-12-31T21:43:35.287Z,10.45
2022-12-31T21:46:04.489Z,6.80
2022-12-31T21:48:31.729Z,9.63
2022-12-31T21:51:10.171Z,4.03
2022-12-31T21:53:37.546Z,13.48
2022-12-31T21:56:16.202Z,9.05
2022-12-31T21:58:45.250Z,7.03
2022-12-31T22:01:38.858Z,9.18
2022-12-31T22:04:07.920Z,8.02
2022-12-31T22:06:39.832Z,11.65
2022-12-31T22:09:06.548Z,14.93
2022-12-31T22:11:33.205Z,9.35
2022-12-31T22:13:59.890Z,10.90
2022-12-31T22:16:26.603Z,13.60
2022-12-31T22:18:55.110Z,4.28
2022-12-31T22:21:23.847Z,10.13
2022-12-31T22:23:52.626Z,13.23
2022-12-31T22:26:23.442Z,6.70
2022-12-31T22:28:51.014Z,7.82
2022-12-31T22:31:20.256Z,13.75
2022-12-31T22:33:47.776Z,7.55
2022-12-31T22:36:19.663Z,6.88
2022-12-31T22:38:47.248Z,11.75
2022-12-31T22:41:20.212Z,16.70
2022-12-31T22:43:57.226Z,6.65
2022-12-31T22:46:29.383Z,11.23
2022-12-31T22:48:59.131Z,9.45
2022-12-31T22:51:55.169Z,9.82
2022-12-31T22:54:14.249Z,12.10
2022-12-31T22:56:41.268Z,4.32
2022-12-31T22:59:08.193Z,4.53
2022-12-31T23:01:35.015Z,3.50
2022-12-31T23:04:01.876Z,5.13
2022-12-31T23:06:29.152Z,5.88
2022-12-31T23:09:15.005Z,10.38
2022-12-31T23:11:43.351Z,5.55
2022-12-31T23:14:34.885Z,5.95
2022-12-31T23:17:31.055Z,5.47
2022-12-31T23:20:20.404Z,10.25
2022-12-31T23:23:07.131Z,5.68
2022-12-31T23:25:35.205Z,6.25
2022-12-31T23:28:02.038Z,11.13
2022-12-31T23:30:29.393Z,7.32
2022-12-31T23:32:56.237Z,3.17
2022-12-31T23:35:22.933Z,10.05
2022-12-31T23:37:49.974Z,11.38
2022-12-31T23:40:21.240Z,7.95
2022-12-31T23:42:49.663Z,6.40
2022-12-31T23:45:16.469Z,5.85
2022-12-31T23:47:43.188Z,4.20
2022-12-31T23:50:09.996Z,3.42
2022-12-31T23:52:36.656Z,3.92
2022-12-31T23:55:03.769Z,3.83
2022-12-31T23:57:30.768Z,5.43
2022-12-31T23:59:58.115Z,4.28
